Apalachia Observed Data For Previous 48 Hours

Caption
Day and Hour Reservoir Elevation (behind dam)* Tailwater Elevation (below dam)* Average Hourly Discharge*
2/16/2019 2 AM EST 1,276.94 841.61 5,386
2/16/2019 3 AM EST 1,276.62 841.61 5,365
2/16/2019 4 AM EST 1,276.25 841.63 5,339
2/16/2019 5 AM EST 1,275.91 841.66 5,320
2/16/2019 6 AM EST 1,275.40 841.65 5,290
2/16/2019 7 AM EST 1,275.31 841.68 5,277
2/16/2019 8 AM EST 1,275.29 841.76 5,264
2/16/2019 9 AM EST 1,275.47 841.78 5,278
2/16/2019 10 AM EST 1,275.47 841.80 5,276
2/16/2019 11 AM EST 1,275.77 841.74 5,295
2/16/2019 12 PM EST 1,276.01 841.77 5,303
2/16/2019 1 PM EST 1,276.29 841.74 5,324
2/16/2019 2 PM EST 1,276.28 841.75 5,327
2/16/2019 3 PM EST 1,276.21 841.75 5,332
2/16/2019 4 PM EST 1,276.07 841.71 5,324
2/16/2019 5 PM EST 1,276.01 841.71 5,317
2/16/2019 6 PM EST 1,276.02 841.70 5,322
2/16/2019 7 PM EST 1,276.42 841.68 5,326
2/16/2019 8 PM EST 1,276.48 841.67 5,344
2/16/2019 9 PM EST 1,276.69 841.64 5,348
2/16/2019 10 PM EST 1,277.02 841.65 5,369
2/16/2019 11 PM EST 1,276.98 841.66 5,372
2/17/2019 12 AM EST 1,276.96 841.61 5,377
2/17/2019 1 AM EST 1,276.51 841.62 5,357
2/17/2019 2 AM EST 1,276.13 841.64 5,335
2/17/2019 3 AM EST 1,275.78 841.63 5,309
2/17/2019 4 AM EST 1,275.52 841.65 5,296
2/17/2019 5 AM EST 1,275.21 841.64 5,271
2/17/2019 6 AM EST 1,274.63 841.60 5,249
2/17/2019 7 AM EST 1,274.63 841.57 5,221
2/17/2019 8 AM EST 1,274.63 841.57 5,226
2/17/2019 9 AM EST 1,274.69 841.51 5,236
2/17/2019 10 AM EST 1,275.07 841.51 5,244
2/17/2019 11 AM EST 1,275.26 841.52 5,266
2/17/2019 12 PM EST 1,275.26 841.53 5,266
2/17/2019 1 PM EST 1,275.60 841.52 5,282
2/17/2019 2 PM EST 1,275.84 841.53 5,294
2/17/2019 3 PM EST 1,275.82 841.54 5,304
2/17/2019 4 PM EST 1,275.77 841.53 5,298
2/17/2019 5 PM EST 1,275.74 841.51 5,302
2/17/2019 6 PM EST 1,275.66 841.58 5,297
2/17/2019 7 PM EST 1,275.88 841.62 5,303
2/17/2019 8 PM EST 1,276.20 841.64 5,316
2/17/2019 9 PM EST 1,276.60 841.74 5,341
2/17/2019 10 PM EST 1,276.79 841.87 5,354
2/17/2019 11 PM EST 1,277.11 842.08 5,375
2/18/2019 12 AM EST 1,277.15 842.25 5,380
2/18/2019 1 AM EST 1,276.81 842.39 5,377
2/18/2019 2 AM EST 1,276.81 842.47 5,359
2/18/2019 3 AM EST 1,276.19 842.57 5,345
2/18/2019 4 AM EST 1,275.86 842.62 5,316
2/18/2019 5 AM EST 1,275.36 842.59 5,286
2/18/2019 6 AM EST 1,275.21 842.57 5,270
2/18/2019 7 AM EST 1,275.17 842.55 5,265
2/18/2019 8 AM EST 1,275.24 842.52 5,269
2/18/2019 9 AM EST 1,275.66 842.40 5,278
2/18/2019 10 AM EST 1,275.90 842.36 5,302
2/18/2019 11 AM EST 1,276.04 842.31 5,308
2/18/2019 12 PM EST 1,276.29 842.24 5,327
2/18/2019 1 PM EST 1,276.54 842.19 5,336
2/18/2019 2 PM EST 1,276.54 842.12 5,354
2/18/2019 3 PM EST 1,276.52 842.11 5,343
2/18/2019 4 PM EST 1,276.51 842.07 5,345
2/18/2019 5 PM EST 1,276.37 842.01 5,339
2/18/2019 6 PM EST 1,276.55 842.00 5,346
2/18/2019 7 PM EST 1,276.79 841.94 5,354
2/18/2019 8 PM EST 1,277.03 841.91 5,371
2/18/2019 9 PM EST 1,277.14 841.88 5,384
2/18/2019 10 PM EST 1,277.43 841.87 5,390
2/18/2019 11 PM EST 1,277.46 841.84 5,409

Elevations are in feet above sea level. Discharges are in cubic feet per second and are reported at the end of the hour.